createdAt,value
2023-02-18T00:02:34.504Z,8.72
2023-02-18T00:07:54.195Z,8.80
2023-02-18T00:12:54.073Z,8.86
2023-02-18T00:17:55.397Z,8.85
2023-02-18T00:22:53.893Z,8.81
2023-02-18T00:27:57.326Z,8.93
2023-02-18T00:32:58.545Z,8.91
2023-02-18T00:38:01.099Z,8.95
2023-02-18T00:43:00.754Z,9.10
2023-02-18T00:47:59.606Z,9.26
2023-02-18T00:52:58.343Z,9.36
2023-02-18T00:57:57.840Z,9.44
2023-02-18T01:02:58.401Z,9.47
2023-02-18T01:07:58.768Z,9.51
2023-02-18T01:13:03.926Z,9.50
2023-02-18T01:18:05.445Z,9.43
2023-02-18T01:23:08.934Z,9.42
2023-02-18T01:28:13.681Z,9.46
2023-02-18T01:33:14.028Z,9.44
2023-02-18T01:38:12.829Z,9.65
2023-02-18T01:43:15.437Z,9.66
2023-02-18T01:48:17.399Z,9.77
2023-02-18T01:53:17.261Z,9.69
2023-02-18T01:58:16.204Z,9.70
2023-02-18T02:03:15.311Z,9.61
2023-02-18T02:08:16.114Z,9.63
2023-02-18T02:13:16.797Z,9.54
2023-02-18T02:18:16.622Z,9.54
2023-02-18T02:23:36.657Z,9.65
2023-02-18T02:28:39.849Z,9.72
2023-02-18T02:33:40.677Z,9.76
2023-02-18T02:38:50.474Z,9.81
2023-02-18T02:44:02.664Z,9.91
2023-02-18T02:49:21.022Z,10.00
2023-02-18T02:54:24.160Z,9.99
2023-02-18T02:59:25.922Z,10.02
2023-02-18T03:04:26.364Z,10.07
2023-02-18T03:09:38.230Z,10.03
2023-02-18T03:20:48.622Z,9.88
2023-02-18T03:26:00.648Z,9.87
2023-02-18T03:31:03.815Z,9.69
2023-02-18T03:36:14.507Z,9.70
2023-02-18T03:41:18.763Z,9.63
2023-02-18T03:46:19.536Z,9.63
2023-02-18T03:51:21.278Z,9.56
2023-02-18T03:56:32.610Z,9.52
2023-02-18T04:01:39.486Z,9.53
2023-02-18T04:06:41.753Z,9.59
2023-02-18T04:11:50.550Z,9.36
2023-02-18T04:16:51.901Z,9.30
2023-02-18T04:21:54.824Z,9.15
2023-02-18T04:26:55.162Z,9.17
2023-02-18T04:31:54.677Z,9.25
2023-02-18T04:36:58.073Z,9.40
2023-02-18T04:41:55.787Z,9.51
2023-02-18T04:46:57.178Z,9.62
2023-02-18T04:51:58.390Z,9.75
2023-02-18T04:56:59.707Z,9.94
2023-02-18T05:01:59.045Z,10.19
2023-02-18T05:07:03.325Z,10.36
2023-02-18T05:12:03.836Z,10.45
2023-02-18T05:17:04.349Z,10.55
2023-02-18T05:22:03.678Z,10.77
2023-02-18T05:27:08.719Z,10.82
2023-02-18T05:32:09.131Z,10.77
2023-02-18T05:37:12.821Z,10.75
2023-02-18T05:42:17.940Z,10.75
2023-02-18T05:47:16.564Z,10.82
2023-02-18T05:52:22.135Z,10.83
2023-02-18T05:57:23.992Z,10.81
2023-02-18T06:02:23.419Z,10.83
2023-02-18T06:07:25.131Z,10.89
2023-02-18T06:12:25.017Z,11.00
2023-02-18T06:17:26.917Z,11.04
2023-02-18T06:22:27.342Z,11.13
2023-02-18T06:27:27.645Z,11.20
2023-02-18T06:32:30.300Z,11.31
2023-02-18T06:37:38.128Z,11.31
2023-02-18T06:43:03.051Z,11.32
2023-02-18T06:48:01.909Z,11.32
2023-02-18T06:53:04.308Z,11.31
2023-02-18T06:58:04.367Z,11.38
2023-02-18T07:03:04.999Z,11.13
2023-02-18T07:08:03.320Z,11.54
2023-02-18T07:13:05.576Z,11.84
2023-02-18T07:18:05.834Z,12.00
2023-02-18T07:23:03.127Z,12.17
2023-02-18T07:28:01.463Z,12.35
2023-02-18T07:33:05.578Z,12.41
2023-02-18T07:38:04.094Z,12.53
2023-02-18T07:43:22.480Z,12.70
2023-02-18T07:48:23.209Z,12.81
2023-02-18T07:53:23.880Z,12.91
2023-02-18T07:58:31.504Z,13.06
2023-02-18T08:03:31.139Z,13.21
2023-02-18T08:08:35.808Z,13.32
2023-02-18T08:13:35.214Z,13.35
2023-02-18T08:18:36.220Z,13.57
2023-02-18T08:23:38.297Z,13.64
2023-02-18T08:28:37.928Z,13.82
2023-02-18T08:33:41.413Z,13.91
2023-02-18T08:38:51.640Z,13.98
2023-02-18T08:43:50.144Z,14.09
2023-02-18T08:48:52.647Z,14.17
2023-02-18T08:53:52.323Z,14.04
2023-02-18T08:58:52.105Z,14.11
2023-02-18T09:03:53.207Z,14.09
2023-02-18T09:08:50.956Z,14.16
2023-02-18T09:13:53.268Z,14.22
2023-02-18T09:18:50.968Z,14.24
2023-02-18T09:23:49.698Z,14.32
2023-02-18T09:28:49.401Z,14.43
2023-02-18T09:34:00.061Z,14.54
2023-02-18T09:39:01.813Z,14.48
2023-02-18T09:44:23.613Z,14.65
2023-02-18T09:49:27.422Z,14.54
2023-02-18T09:54:27.261Z,14.75
2023-02-18T09:59:25.762Z,14.77
2023-02-18T10:04:36.055Z,14.79
2023-02-18T10:09:40.405Z,14.85
2023-02-18T10:14:42.550Z,14.73
2023-02-18T10:19:53.749Z,14.64
2023-02-18T10:24:51.046Z,14.65
2023-02-18T10:29:52.104Z,14.58
2023-02-18T10:34:53.412Z,14.67
2023-02-18T10:40:05.400Z,14.67
2023-02-18T10:45:06.492Z,14.66
2023-02-18T10:50:09.058Z,14.56
2023-02-18T10:55:09.938Z,14.55
2023-02-18T11:00:20.589Z,14.48
2023-02-18T11:05:30.254Z,14.49
2023-02-18T11:10:36.539Z,14.50
2023-02-18T11:15:35.223Z,14.37
2023-02-18T11:20:34.413Z,14.29
2023-02-18T11:25:36.802Z,14.37
2023-02-18T11:30:35.960Z,14.43
2023-02-18T11:35:35.412Z,14.39
2023-02-18T11:40:39.841Z,14.37
2023-02-18T11:45:40.827Z,14.33
2023-02-18T11:50:41.542Z,14.31
2023-02-18T11:55:42.418Z,14.40
2023-02-18T12:00:44.928Z,14.50
2023-02-18T12:05:45.930Z,14.63
2023-02-18T12:10:49.473Z,14.73
2023-02-18T12:15:55.012Z,14.75
2023-02-18T12:21:01.341Z,14.76
2023-02-18T12:26:08.558Z,14.72
2023-02-18T12:31:10.187Z,14.89
2023-02-18T12:36:15.542Z,14.91
2023-02-18T12:41:26.032Z,14.93
2023-02-18T12:46:26.048Z,15.01
2023-02-18T12:51:44.168Z,14.98
2023-02-18T12:56:45.567Z,14.95
2023-02-18T13:01:51.834Z,15.01
2023-02-18T13:07:10.700Z,15.05
2023-02-18T13:12:25.616Z,15.24
2023-02-18T13:17:25.507Z,14.90
2023-02-18T13:22:27.721Z,15.23
2023-02-18T13:27:30.356Z,15.13
2023-02-18T13:32:45.113Z,15.19
2023-02-18T13:37:56.076Z,15.26
2023-02-18T13:42:55.113Z,15.36
2023-02-18T13:47:54.381Z,15.28
2023-02-18T13:53:08.765Z,15.42
2023-02-18T13:58:07.950Z,15.40
2023-02-18T14:03:26.072Z,15.38
2023-02-18T14:08:34.296Z,15.36
2023-02-18T14:14:20.382Z,15.42
2023-02-18T14:19:30.348Z,15.50
2023-02-18T14:24:51.894Z,15.47
2023-02-18T14:29:54.472Z,15.48
2023-02-18T14:35:05.951Z,15.48
2023-02-18T14:40:17.430Z,15.38
2023-02-18T14:45:37.020Z,15.46
2023-02-18T14:50:42.064Z,15.55
2023-02-18T14:55:43.961Z,15.44
2023-02-18T15:00:42.666Z,15.40
2023-02-18T15:05:43.389Z,15.36
2023-02-18T15:10:53.641Z,15.30
2023-02-18T15:15:52.452Z,15.15
2023-02-18T15:20:51.417Z,14.97
2023-02-18T15:25:52.705Z,14.82
2023-02-18T15:30:51.202Z,14.67
2023-02-18T15:35:57.239Z,14.55
2023-02-18T15:40:56.652Z,14.43
2023-02-18T15:45:57.426Z,14.37
2023-02-18T15:51:08.122Z,14.21
2023-02-18T15:56:17.861Z,14.03
2023-02-18T16:01:39.580Z,14.04
2023-02-18T16:06:40.882Z,14.04
2023-02-18T16:11:46.185Z,13.98
2023-02-18T16:16:44.682Z,13.85
2023-02-18T16:21:47.417Z,13.69
2023-02-18T16:26:57.606Z,13.62
2023-02-18T16:31:57.573Z,13.56
2023-02-18T16:37:15.193Z,13.50
2023-02-18T16:42:57.506Z,13.45
2023-02-18T16:48:16.032Z,13.41
2023-02-18T16:54:07.625Z,13.32
2023-02-18T16:59:09.310Z,13.21
2023-02-18T17:04:39.536Z,13.17
2023-02-18T17:09:48.272Z,13.09
2023-02-18T17:14:58.863Z,13.05
2023-02-18T17:19:59.793Z,12.98
2023-02-18T17:25:01.817Z,12.84
2023-02-18T17:29:59.954Z,12.65
2023-02-18T17:35:02.136Z,12.49
2023-02-18T17:40:03.812Z,12.40
2023-02-18T17:45:12.557Z,12.24
2023-02-18T17:50:19.994Z,12.20
2023-02-18T17:55:19.960Z,12.08
2023-02-18T18:00:34.196Z,12.08
2023-02-18T18:05:35.548Z,12.08
2023-02-18T18:10:34.663Z,11.96
2023-02-18T18:15:46.883Z,11.93
2023-02-18T18:20:49.403Z,11.82
2023-02-18T18:26:02.048Z,11.78
2023-02-18T18:31:25.128Z,11.69
2023-02-18T18:36:32.087Z,11.60
2023-02-18T18:41:32.836Z,11.56
2023-02-18T18:46:34.149Z,11.44
2023-02-18T18:51:41.036Z,11.54
2023-02-18T18:56:43.751Z,11.49
2023-02-18T19:01:43.701Z,11.55
2023-02-18T19:06:47.248Z,11.65
2023-02-18T19:11:47.693Z,11.65
2023-02-18T19:16:45.875Z,11.58
2023-02-18T19:21:46.685Z,11.57
2023-02-18T19:26:48.994Z,11.52
2023-02-18T19:31:50.269Z,11.41
2023-02-18T19:36:48.766Z,11.34
2023-02-18T19:41:48.044Z,11.18
2023-02-18T19:46:46.448Z,11.16
2023-02-18T19:51:52.026Z,11.09
2023-02-18T19:56:56.372Z,11.13
2023-02-18T20:01:54.115Z,11.09
2023-02-18T20:06:55.473Z,11.05
2023-02-18T20:11:56.622Z,11.09
2023-02-18T20:17:00.660Z,11.25
2023-02-18T20:22:00.351Z,11.25
2023-02-18T20:27:02.703Z,11.26
2023-02-18T20:32:01.813Z,11.23
2023-02-18T20:37:02.365Z,11.16
2023-02-18T20:42:15.552Z,11.03
2023-02-18T20:47:18.776Z,10.89
2023-02-18T20:52:16.933Z,10.95
2023-02-18T20:57:15.366Z,11.01
2023-02-18T21:02:13.575Z,11.15
2023-02-18T21:07:16.376Z,11.46
2023-02-18T21:12:19.546Z,11.66
2023-02-18T21:17:17.448Z,11.85
2023-02-18T21:22:15.355Z,11.99
2023-02-18T21:27:17.884Z,11.99
2023-02-18T21:32:20.104Z,12.02
2023-02-18T21:37:29.329Z,11.90
2023-02-18T21:42:30.894Z,11.94
2023-02-18T21:47:32.571Z,12.04
2023-02-18T21:52:32.786Z,11.97
2023-02-18T21:57:31.367Z,11.84
2023-02-18T22:02:31.929Z,11.85
2023-02-18T22:07:34.298Z,11.90
2023-02-18T22:12:34.265Z,11.85
2023-02-18T22:17:33.275Z,11.86
2023-02-18T22:22:31.191Z,11.72
2023-02-18T22:27:33.016Z,11.57
2023-02-18T22:32:32.241Z,11.49
2023-02-18T22:37:30.621Z,11.45
2023-02-18T22:42:31.692Z,11.30
2023-02-18T22:47:33.846Z,11.20
2023-02-18T22:52:35.597Z,11.19
2023-02-18T22:57:34.662Z,11.29
2023-02-18T23:02:35.648Z,11.41
2023-02-18T23:07:35.600Z,11.37
2023-02-18T23:12:34.953Z,11.27
2023-02-18T23:17:34.167Z,11.43
2023-02-18T23:22:36.706Z,11.73
2023-02-18T23:27:36.084Z,12.00
2023-02-18T23:32:39.255Z,12.10
2023-02-18T23:38:00.547Z,12.26
2023-02-18T23:43:01.962Z,12.34
2023-02-18T23:48:01.404Z,12.24
2023-02-18T23:53:00.313Z,12.23
2023-02-18T23:57:58.469Z,12.31
